createdAt,value
2022-08-30T00:00:40.815Z,656.85
2022-08-30T00:03:12.345Z,654.78
2022-08-30T00:05:40.583Z,684.47
2022-08-30T00:08:08.834Z,743.05
2022-08-30T00:10:36.817Z,695.25
2022-08-30T00:13:06.617Z,723.35
2022-08-30T00:15:35.298Z,709.50
2022-08-30T00:18:03.214Z,712.72
2022-08-30T00:20:34.806Z,719.85
2022-08-30T00:23:03.589Z,720.50
2022-08-30T00:25:31.782Z,720.42
2022-08-30T00:27:59.667Z,729.45
2022-08-30T00:30:27.882Z,723.20
2022-08-30T00:32:55.725Z,718.97
2022-08-30T00:35:24.231Z,732.38
2022-08-30T00:37:53.587Z,624.20
2022-08-30T00:40:27.371Z,509.15
2022-08-30T00:42:59.250Z,698.67
2022-08-30T00:45:30.790Z,663.13
2022-08-30T00:47:58.882Z,544.10
2022-08-30T00:50:30.209Z,558.45
2022-08-30T00:53:02.021Z,644.78
2022-08-30T00:55:30.850Z,499.40
2022-08-30T00:58:02.333Z,514.15
2022-08-30T01:00:32.317Z,666.85
2022-08-30T01:03:00.325Z,525.33
2022-08-30T01:05:28.998Z,497.17
2022-08-30T01:07:57.361Z,633.15
2022-08-30T01:10:26.632Z,426.17
2022-08-30T01:12:54.534Z,184.00
2022-08-30T01:15:22.614Z,688.03
2022-08-30T01:17:51.097Z,618.22
2022-08-30T01:20:22.817Z,515.78
2022-08-30T01:23:13.536Z,103.32
2022-08-30T01:25:43.345Z,41.13
2022-08-30T01:28:13.474Z,133.38
2022-08-30T01:30:43.175Z,45.10
2022-08-30T01:33:12.875Z,68.85
2022-08-30T01:35:53.895Z,56.03
2022-08-30T01:38:25.475Z,359.05
2022-08-30T01:40:59.319Z,452.13
2022-08-30T01:43:27.713Z,343.75
2022-08-30T01:45:55.717Z,288.27
2022-08-30T01:48:30.945Z,531.90
2022-08-30T01:50:59.824Z,421.40
2022-08-30T01:53:29.551Z,525.35
2022-08-30T01:55:57.616Z,529.10
2022-08-30T01:58:25.704Z,499.15
2022-08-30T02:00:53.628Z,507.75
2022-08-30T02:03:21.662Z,501.63
2022-08-30T02:05:49.876Z,610.70
2022-08-30T02:08:18.070Z,680.10
2022-08-30T02:10:47.426Z,641.95
2022-08-30T02:13:15.730Z,631.92
2022-08-30T02:15:43.757Z,636.80
2022-08-30T02:18:11.874Z,695.25
2022-08-30T02:20:40.919Z,643.17
2022-08-30T02:23:08.881Z,670.63
2022-08-30T02:25:36.725Z,658.83
2022-08-30T02:28:06.501Z,659.78
2022-08-30T02:30:34.613Z,673.53
2022-08-30T02:33:02.676Z,674.95
2022-08-30T02:35:31.209Z,681.85
2022-08-30T02:37:59.145Z,694.08
2022-08-30T02:40:27.078Z,706.78
2022-08-30T02:42:58.772Z,689.50
2022-08-30T02:45:28.941Z,703.97
2022-08-30T02:47:57.014Z,693.05
2022-08-30T02:50:25.729Z,700.65
2022-08-30T02:52:54.450Z,684.63
2022-08-30T02:55:24.213Z,692.58
2022-08-30T02:57:52.228Z,722.83
2022-08-30T03:00:22.196Z,662.42
2022-08-30T03:02:51.450Z,691.22
2022-08-30T03:05:19.872Z,687.90
2022-08-30T03:07:48.583Z,599.70
2022-08-30T03:10:17.521Z,692.42
2022-08-30T03:12:47.950Z,696.83
2022-08-30T03:15:16.687Z,711.10
2022-08-30T03:17:44.557Z,692.15
2022-08-30T03:20:14.286Z,593.35
2022-08-30T03:22:42.285Z,162.10
2022-08-30T03:25:10.999Z,625.88
2022-08-30T03:27:38.896Z,504.50
2022-08-30T03:30:08.710Z,536.95
2022-08-30T03:32:37.095Z,533.13
2022-08-30T03:35:05.969Z,376.67
2022-08-30T03:37:35.385Z,60.00
2022-08-30T03:40:04.435Z,37.63
2022-08-30T03:42:34.199Z,371.15
2022-08-30T03:45:03.108Z,611.63
2022-08-30T03:47:30.990Z,656.90
2022-08-30T03:49:58.881Z,665.33
2022-08-30T03:52:27.974Z,678.55
2022-08-30T03:54:57.530Z,678.03
2022-08-30T03:57:25.780Z,683.40
2022-08-30T03:59:53.717Z,693.38
2022-08-30T04:02:22.131Z,675.10
2022-08-30T04:04:51.051Z,663.35
2022-08-30T04:07:19.362Z,673.75
2022-08-30T04:09:47.418Z,662.30
2022-08-30T04:12:18.409Z,663.78
2022-08-30T04:14:51.055Z,664.88
2022-08-30T04:17:18.946Z,678.33
2022-08-30T04:19:46.894Z,688.50
2022-08-30T04:22:14.717Z,683.92
2022-08-30T04:24:42.718Z,687.42
2022-08-30T04:27:11.124Z,686.75
2022-08-30T04:29:40.505Z,690.78
2022-08-30T04:32:08.652Z,700.10
2022-08-30T04:34:36.971Z,684.53
2022-08-30T04:37:04.929Z,715.38
2022-08-30T04:39:33.291Z,690.85
2022-08-30T04:42:01.494Z,688.70
2022-08-30T04:44:29.496Z,683.78
2022-08-30T04:46:59.053Z,662.22
2022-08-30T04:49:27.007Z,678.33
2022-08-30T04:51:55.814Z,498.50
2022-08-30T04:54:24.059Z,674.80
2022-08-30T04:56:51.910Z,679.42
2022-08-30T04:59:19.752Z,537.95
2022-08-30T05:01:48.300Z,686.97
2022-08-30T05:04:17.661Z,688.08
2022-08-30T05:06:45.571Z,686.78
2022-08-30T05:09:13.492Z,557.53
2022-08-30T05:11:43.280Z,291.92
2022-08-30T05:14:11.798Z,591.85
2022-08-30T05:16:40.168Z,637.55
2022-08-30T05:19:08.429Z,420.05
2022-08-30T05:21:40.720Z,370.13
2022-08-30T05:24:09.423Z,510.85
2022-08-30T05:26:39.189Z,502.75
2022-08-30T05:29:07.229Z,383.73
2022-08-30T05:31:37.485Z,692.33
2022-08-30T05:34:08.386Z,377.40
2022-08-30T05:36:40.680Z,644.20
2022-08-30T05:39:10.657Z,635.20
2022-08-30T05:41:39.832Z,566.80
2022-08-30T05:44:09.973Z,688.53
2022-08-30T05:46:39.858Z,663.83
2022-08-30T05:49:11.120Z,485.23
2022-08-30T05:51:43.575Z,481.27
2022-08-30T05:54:12.329Z,685.22
2022-08-30T05:56:41.619Z,356.40
2022-08-30T05:59:10.387Z,438.45
2022-08-30T06:01:41.222Z,395.85
2022-08-30T06:04:12.014Z,516.47
2022-08-30T06:06:43.565Z,316.98
2022-08-30T06:09:13.429Z,135.40
2022-08-30T06:11:43.773Z,113.35
2022-08-30T06:14:12.031Z,621.33
2022-08-30T06:16:41.318Z,679.35
2022-08-30T06:19:11.243Z,407.52
2022-08-30T06:21:41.974Z,448.15
2022-08-30T06:24:11.854Z,366.95
2022-08-30T06:26:42.062Z,189.98
2022-08-30T06:29:10.987Z,221.23
2022-08-30T06:31:39.633Z,545.10
2022-08-30T06:34:08.299Z,453.50
2022-08-30T06:36:36.764Z,432.13
2022-08-30T06:39:06.987Z,261.83
2022-08-30T06:41:37.001Z,432.65
2022-08-30T06:44:06.562Z,103.95
2022-08-30T06:46:36.907Z,44.47
2022-08-30T06:49:06.343Z,26.75
2022-08-30T06:51:36.195Z,28.00
2022-08-30T06:54:10.641Z,73.55
2022-08-30T06:56:48.724Z,39.45
2022-08-30T06:59:25.814Z,50.00
2022-08-30T07:01:55.367Z,20.15
2022-08-30T07:04:23.612Z,27.30
2022-08-30T07:06:51.881Z,33.85
2022-08-30T07:09:22.864Z,198.15
2022-08-30T07:11:52.020Z,282.92
2022-08-30T07:14:20.154Z,78.50
2022-08-30T07:16:51.066Z,394.77
2022-08-30T07:19:20.572Z,185.48
2022-08-30T07:21:51.038Z,79.55
2022-08-30T07:24:19.466Z,279.48
2022-08-30T07:26:52.328Z,318.05
2022-08-30T07:29:21.452Z,317.27
2022-08-30T07:31:52.565Z,656.75
2022-08-30T07:34:22.437Z,652.47
2022-08-30T07:36:53.089Z,699.97
2022-08-30T07:39:21.800Z,703.28
2022-08-30T07:41:52.197Z,716.80
2022-08-30T07:44:20.538Z,707.70
2022-08-30T07:46:51.375Z,530.25
2022-08-30T07:49:20.132Z,685.70
2022-08-30T07:51:49.157Z,695.75
2022-08-30T07:54:17.273Z,561.97
2022-08-30T07:56:45.458Z,720.22
2022-08-30T07:59:15.156Z,536.20
2022-08-30T08:01:43.522Z,408.85
2022-08-30T08:04:12.390Z,302.63
2022-08-30T08:06:41.235Z,271.23
2022-08-30T08:09:11.263Z,496.10
2022-08-30T08:11:40.769Z,441.67
2022-08-30T08:14:09.247Z,590.42
2022-08-30T08:16:39.368Z,646.53
2022-08-30T08:19:09.441Z,368.52
2022-08-30T08:21:38.598Z,330.08
2022-08-30T08:24:06.855Z,417.38
2022-08-30T08:26:35.799Z,562.08
2022-08-30T08:29:04.071Z,353.20
2022-08-30T08:31:33.398Z,302.40
2022-08-30T08:34:06.766Z,635.88
2022-08-30T08:36:37.293Z,354.42
2022-08-30T08:39:12.329Z,508.95
2022-08-30T08:41:52.445Z,256.65
2022-08-30T08:44:34.287Z,295.27
2022-08-30T08:47:23.068Z,685.55
2022-08-30T08:50:04.597Z,642.95
2022-08-30T08:53:01.087Z,662.05
2022-08-30T08:55:30.645Z,256.17
2022-08-30T08:57:59.360Z,179.55
2022-08-30T09:00:27.555Z,108.50
2022-08-30T09:02:59.897Z,158.15
2022-08-30T09:05:36.780Z,328.63
2022-08-30T09:08:11.012Z,526.15
2022-08-30T09:10:50.759Z,703.35
2022-08-30T09:13:30.428Z,521.33
2022-08-30T09:16:06.543Z,389.00
2022-08-30T09:18:45.542Z,458.83
2022-08-30T09:21:24.777Z,316.98
2022-08-30T09:23:59.159Z,74.68
2022-08-30T09:26:32.048Z,29.83
2022-08-30T09:32:16.147Z,23.23
2022-08-30T09:34:44.908Z,42.00
2022-08-30T09:37:30.299Z,30.00
2022-08-30T09:40:01.305Z,62.33
2022-08-30T09:42:31.290Z,170.30
2022-08-30T09:45:11.918Z,470.83
2022-08-30T09:47:41.770Z,399.92
2022-08-30T09:50:12.230Z,384.08
2022-08-30T09:53:01.737Z,395.17
2022-08-30T09:55:48.083Z,388.00
2022-08-30T09:58:25.709Z,290.90
2022-08-30T10:01:04.845Z,321.42
2022-08-30T10:03:40.569Z,262.42
2022-08-30T10:06:22.016Z,491.77
2022-08-30T10:09:00.851Z,578.55
2022-08-30T10:11:41.489Z,595.75
2022-08-30T10:14:45.425Z,574.63
2022-08-30T10:17:19.462Z,699.13
2022-08-30T10:20:03.782Z,720.45
2022-08-30T10:22:35.727Z,673.28
2022-08-30T10:25:16.156Z,682.80
2022-08-30T10:27:48.686Z,692.47
2022-08-30T10:30:18.193Z,483.92
2022-08-30T10:32:51.069Z,683.45
2022-08-30T10:35:21.918Z,709.08
2022-08-30T10:37:52.488Z,716.17
2022-08-30T10:40:43.838Z,703.35
2022-08-30T10:43:18.644Z,717.03
2022-08-30T10:45:48.647Z,706.53
2022-08-30T10:48:20.599Z,708.20
2022-08-30T10:50:53.667Z,723.95
2022-08-30T10:53:27.574Z,723.17
2022-08-30T10:56:02.603Z,722.45
2022-08-30T10:58:32.883Z,728.20
2022-08-30T11:01:12.840Z,729.90
2022-08-30T11:04:25.015Z,732.65
2022-08-30T11:06:59.664Z,702.78
2022-08-30T11:09:42.719Z,718.55
2022-08-30T11:12:26.608Z,740.67
2022-08-30T11:14:55.260Z,727.63
2022-08-30T11:17:27.345Z,721.60
2022-08-30T11:19:59.782Z,726.70
2022-08-30T11:22:30.170Z,708.85
2022-08-30T11:25:10.224Z,729.58
2022-08-30T11:27:51.465Z,697.67
2022-08-30T11:30:51.343Z,726.20
2022-08-30T11:33:47.719Z,722.75
2022-08-30T11:36:49.298Z,717.15
2022-08-30T11:39:51.088Z,725.80
2022-08-30T11:45:45.873Z,735.78
2022-08-30T11:48:53.932Z,715.63
2022-08-30T11:55:02.646Z,726.35
2022-08-30T11:57:33.260Z,727.28
2022-08-30T12:00:10.329Z,717.60
2022-08-30T12:02:47.333Z,703.08
2022-08-30T12:06:01.141Z,699.35
2022-08-30T12:08:59.607Z,744.47
2022-08-30T12:12:04.619Z,725.35
2022-08-30T12:14:49.010Z,737.55
2022-08-30T12:17:43.399Z,765.33
2022-08-30T12:20:29.111Z,366.33
2022-08-30T12:22:57.994Z,745.03
2022-08-30T12:25:32.860Z,737.60
2022-08-30T12:28:16.974Z,726.42
2022-08-30T12:30:46.727Z,757.95
2022-08-30T12:33:18.183Z,735.88
2022-08-30T12:35:48.605Z,717.85
2022-08-30T12:38:27.462Z,683.30
2022-08-30T12:41:01.505Z,750.90
2022-08-30T12:43:33.161Z,718.67
2022-08-30T12:46:11.666Z,742.70
2022-08-30T12:48:41.147Z,682.55
2022-08-30T12:51:37.896Z,649.00
2022-08-30T12:54:09.786Z,673.10
2022-08-30T12:57:19.072Z,724.08
2022-08-30T12:59:58.517Z,707.88
2022-08-30T13:02:29.244Z,700.47
2022-08-30T13:04:57.843Z,717.10
2022-08-30T13:07:30.492Z,706.92
2022-08-30T13:10:07.304Z,692.80
2022-08-30T13:12:38.336Z,661.05
2022-08-30T13:15:21.829Z,730.47
2022-08-30T13:17:49.779Z,693.65
2022-08-30T13:20:26.038Z,388.05
2022-08-30T13:23:07.155Z,377.73
2022-08-30T13:25:35.629Z,239.05
2022-08-30T13:28:05.223Z,484.10
2022-08-30T13:30:34.189Z,371.98
2022-08-30T13:33:02.493Z,433.98
2022-08-30T13:35:31.243Z,505.08
2022-08-30T13:38:01.405Z,369.98
2022-08-30T13:40:30.811Z,170.25
2022-08-30T13:42:58.954Z,68.57
2022-08-30T13:45:42.899Z,46.03
2022-08-30T13:48:11.904Z,258.48
2022-08-30T13:50:39.909Z,309.02
2022-08-30T13:53:09.222Z,253.85
2022-08-30T13:55:39.020Z,345.27
2022-08-30T13:58:08.617Z,668.33
2022-08-30T14:00:38.102Z,725.35
2022-08-30T14:03:06.427Z,627.15
2022-08-30T14:06:04.935Z,699.08
2022-08-30T14:08:45.581Z,756.47
2022-08-30T14:11:19.433Z,743.42
2022-08-30T14:16:45.145Z,669.63
2022-08-30T14:19:15.680Z,669.33
2022-08-30T14:21:49.114Z,579.95
2022-08-30T14:24:30.409Z,636.78
2022-08-30T14:26:59.871Z,481.42
2022-08-30T14:29:30.139Z,289.67
2022-08-30T14:32:00.322Z,375.20
2022-08-30T14:34:34.437Z,248.88
2022-08-30T14:37:07.080Z,621.65
2022-08-30T14:39:39.121Z,575.20
2022-08-30T14:44:56.479Z,588.13
2022-08-30T14:47:29.560Z,462.80
2022-08-30T14:50:01.047Z,676.88
2022-08-30T14:52:29.634Z,629.22
2022-08-30T14:55:05.159Z,534.90
2022-08-30T14:57:38.702Z,734.83
2022-08-30T15:00:17.539Z,727.40
2022-08-30T15:02:48.225Z,703.58
2022-08-30T15:05:18.966Z,724.53
2022-08-30T15:07:53.127Z,778.55
2022-08-30T15:10:25.184Z,732.95
2022-08-30T15:13:04.902Z,487.88
2022-08-30T15:15:42.400Z,603.00
2022-08-30T15:18:10.499Z,162.02
2022-08-30T15:20:40.823Z,438.35
2022-08-30T15:23:08.989Z,165.77
2022-08-30T15:25:37.400Z,717.35
2022-08-30T15:28:11.516Z,729.20
2022-08-30T15:30:41.486Z,672.13
2022-08-30T15:33:10.878Z,115.43
2022-08-30T15:35:42.005Z,343.67
2022-08-30T15:38:10.459Z,362.90
2022-08-30T15:40:40.622Z,20.45
2022-08-30T15:43:08.758Z,33.92
2022-08-30T15:45:38.684Z,26.40
2022-08-30T15:48:06.690Z,187.60
2022-08-30T15:50:35.821Z,421.20
2022-08-30T15:53:05.097Z,592.38
2022-08-30T15:55:35.440Z,724.70
2022-08-30T15:58:03.976Z,821.20
2022-08-30T16:00:33.138Z,476.50
2022-08-30T16:03:02.869Z,367.23
2022-08-30T16:05:31.199Z,391.27
2022-08-30T16:07:59.563Z,478.63
2022-08-30T16:10:27.428Z,130.65
2022-08-30T16:13:02.948Z,34.67
2022-08-30T16:15:32.065Z,343.73
2022-08-30T16:18:00.041Z,469.23
2022-08-30T16:20:29.472Z,352.27
2022-08-30T16:22:57.465Z,450.13
2022-08-30T16:25:25.716Z,303.83
2022-08-30T16:28:09.516Z,318.77
2022-08-30T16:30:37.550Z,48.28
2022-08-30T16:33:06.039Z,58.60
2022-08-30T16:35:35.454Z,357.58
2022-08-30T16:38:03.461Z,175.18
2022-08-30T16:40:31.712Z,193.50
2022-08-30T16:42:59.718Z,48.55
2022-08-30T16:45:31.332Z,47.03
2022-08-30T16:48:02.307Z,151.85
2022-08-30T16:50:30.166Z,34.70
2022-08-30T16:53:00.241Z,40.92
2022-08-30T16:55:28.990Z,191.57
2022-08-30T16:57:56.952Z,778.20
2022-08-30T17:00:25.098Z,707.05
2022-08-30T17:02:56.390Z,707.63
2022-08-30T17:05:24.466Z,719.20
2022-08-30T17:07:52.414Z,790.70
2022-08-30T17:10:23.336Z,731.58
2022-08-30T17:12:54.219Z,732.67
2022-08-30T17:15:22.167Z,733.35
2022-08-30T17:17:50.317Z,774.75
2022-08-30T17:20:21.097Z,760.60
2022-08-30T17:22:49.142Z,749.33
2022-08-30T17:25:17.043Z,753.17
2022-08-30T17:27:46.356Z,778.50
2022-08-30T17:30:14.458Z,741.42
2022-08-30T17:32:42.383Z,730.80
2022-08-30T17:35:10.564Z,742.83
2022-08-30T17:37:40.342Z,209.85
2022-08-30T17:40:14.331Z,26.60
2022-08-30T17:42:44.039Z,32.35
2022-08-30T17:45:16.178Z,31.40
2022-08-30T17:47:45.028Z,72.80
2022-08-30T17:50:14.132Z,29.63
2022-08-30T17:52:42.317Z,69.93
2022-08-30T17:55:11.556Z,332.35
2022-08-30T17:57:44.354Z,730.30
2022-08-30T18:00:15.653Z,594.05
2022-08-30T18:02:44.050Z,427.60
2022-08-30T18:05:12.156Z,587.95
2022-08-30T18:07:40.722Z,545.90
2022-08-30T18:10:09.467Z,359.52
2022-08-30T18:12:38.196Z,239.48
2022-08-30T18:15:12.588Z,326.58
2022-08-30T18:17:47.664Z,96.85
2022-08-30T18:20:16.146Z,125.45
2022-08-30T18:22:44.061Z,24.13
2022-08-30T18:25:14.901Z,20.55
2022-08-30T18:27:45.815Z,84.20
2022-08-30T18:30:31.161Z,30.52
2022-08-30T18:33:02.983Z,20.63
2022-08-30T18:35:34.574Z,29.55
2022-08-30T18:38:04.724Z,138.50
2022-08-30T18:40:32.691Z,15.10
2022-08-30T18:43:07.935Z,25.13
2022-08-30T18:45:36.253Z,25.45
2022-08-30T18:48:06.586Z,150.48
2022-08-30T18:50:34.718Z,211.52
2022-08-30T18:53:03.072Z,518.83
2022-08-30T18:55:31.020Z,657.80
2022-08-30T18:57:59.126Z,798.22
2022-08-30T19:00:29.968Z,573.80
2022-08-30T19:02:57.799Z,404.40
2022-08-30T19:05:27.857Z,373.92
2022-08-30T19:07:56.358Z,651.92
2022-08-30T19:10:26.799Z,464.15
2022-08-30T19:12:55.990Z,492.58
2022-08-30T19:15:24.142Z,361.35
2022-08-30T19:17:52.031Z,130.25
2022-08-30T19:20:24.748Z,21.63
2022-08-30T19:23:09.310Z,22.25
2022-08-30T19:25:38.034Z,31.55
2022-08-30T19:28:06.612Z,176.48
2022-08-30T19:30:41.053Z,200.65
2022-08-30T19:33:13.656Z,380.77
2022-08-30T19:35:51.432Z,520.53
2022-08-30T19:38:21.220Z,714.63
2022-08-30T19:40:53.987Z,706.97
2022-08-30T19:43:22.694Z,714.58
2022-08-30T19:45:54.783Z,371.95
2022-08-30T19:48:23.236Z,530.75
2022-08-30T19:50:57.435Z,697.33
2022-08-30T19:53:27.768Z,687.72
2022-08-30T19:55:55.583Z,700.40
2022-08-30T19:58:23.591Z,672.92
2022-08-30T20:03:39.931Z,691.17
2022-08-30T20:06:08.961Z,714.90
2022-08-30T20:08:38.697Z,713.72
2022-08-30T20:11:07.659Z,661.50
2022-08-30T20:13:38.980Z,683.17
2022-08-30T20:16:07.553Z,626.72
2022-08-30T20:18:37.184Z,711.25
2022-08-30T20:21:05.479Z,646.10
2022-08-30T20:23:43.254Z,461.98
2022-08-30T20:26:12.321Z,577.05
2022-08-30T20:28:40.861Z,517.38
2022-08-30T20:31:11.215Z,19.60
2022-08-30T20:33:41.097Z,26.40
2022-08-30T20:36:11.320Z,242.20
2022-08-30T20:38:40.166Z,38.83
2022-08-30T20:41:13.053Z,27.05
2022-08-30T20:43:41.266Z,34.53
2022-08-30T20:46:10.681Z,18.33
2022-08-30T20:48:39.326Z,32.05
2022-08-30T20:51:09.441Z,21.50
2022-08-30T20:53:37.446Z,29.92
2022-08-30T20:56:05.730Z,14.02
2022-08-30T20:58:35.006Z,25.50
2022-08-30T21:01:02.997Z,26.25
2022-08-30T21:03:32.703Z,23.70
2022-08-30T21:06:00.884Z,146.20
2022-08-30T21:08:29.110Z,154.75
2022-08-30T21:10:56.987Z,165.82
2022-08-30T21:13:25.319Z,314.38
2022-08-30T21:16:00.300Z,506.38
2022-08-30T21:18:33.041Z,588.40
2022-08-30T21:21:01.328Z,624.50
2022-08-30T21:23:29.406Z,690.92
2022-08-30T21:26:01.257Z,696.03
2022-08-30T21:28:29.325Z,668.28
2022-08-30T21:31:07.004Z,646.28
2022-08-30T21:33:35.250Z,301.75
2022-08-30T21:36:20.718Z,704.33
2022-08-30T21:38:48.890Z,680.35
2022-08-30T21:41:17.440Z,711.95
2022-08-30T21:43:47.444Z,479.45
2022-08-30T21:46:17.920Z,463.75
2022-08-30T21:48:46.697Z,476.63
2022-08-30T21:51:14.848Z,648.83
2022-08-30T21:53:42.849Z,651.35
2022-08-30T21:56:13.517Z,292.80
2022-08-30T21:58:45.498Z,58.92
2022-08-30T22:01:17.508Z,204.20
2022-08-30T22:03:46.778Z,394.77
2022-08-30T22:06:15.698Z,60.72
2022-08-30T22:08:45.683Z,30.00
2022-08-30T22:11:16.861Z,23.13
2022-08-30T22:13:46.370Z,28.30
2022-08-30T22:16:18.180Z,17.77
2022-08-30T22:18:46.570Z,27.67
2022-08-30T22:21:16.418Z,23.23
2022-08-30T22:23:45.079Z,37.28
2022-08-30T22:26:14.261Z,22.58
2022-08-30T22:28:42.378Z,38.67
2022-08-30T22:31:12.885Z,19.65
2022-08-30T22:33:43.056Z,26.23
2022-08-30T22:36:13.868Z,28.20
2022-08-30T22:38:42.536Z,31.00
2022-08-30T22:41:11.982Z,31.48
2022-08-30T22:43:40.325Z,31.13
2022-08-30T22:46:08.472Z,127.43
2022-08-30T22:48:37.358Z,220.75
2022-08-30T22:51:07.109Z,353.60
2022-08-30T22:53:35.479Z,269.15
2022-08-30T22:56:09.642Z,394.77
2022-08-30T22:58:37.923Z,456.23
2022-08-30T23:01:07.013Z,614.20
2022-08-30T23:03:35.628Z,336.50
2022-08-30T23:06:03.960Z,336.30
2022-08-30T23:08:33.262Z,352.67
2022-08-30T23:11:01.266Z,28.40
2022-08-30T23:13:29.151Z,396.23
2022-08-30T23:15:57.400Z,544.75
2022-08-30T23:18:25.320Z,23.80
2022-08-30T23:20:53.582Z,38.03
2022-08-30T23:23:38.743Z,28.88
2022-08-30T23:26:25.773Z,26.45
2022-08-30T23:29:11.046Z,35.10
2022-08-30T23:31:56.387Z,29.05
2022-08-30T23:34:41.858Z,28.40
2022-08-30T23:37:27.091Z,724.50
2022-08-30T23:40:12.387Z,382.58
2022-08-30T23:43:00.967Z,507.05
2022-08-30T23:45:46.651Z,107.97
2022-08-30T23:48:31.852Z,129.50
2022-08-30T23:51:21.822Z,443.13
2022-08-30T23:54:07.945Z,173.38
2022-08-30T23:56:53.370Z,718.80
2022-08-30T23:59:40.158Z,692.35
